Time;durP1;ratioP1;P1;durP2;ratioP2;P2;SDS_P1;SDS_P2;PMS_P1;PMS_P2;Temp;Humidity;BMP_temperature;BMP_pressure;BME280_temperature;BME280_humidity;BME280_pressure;Samples;Min_cycle;Max_cycle;Signal;HPM_P1;HPM_P2
2022/10/29 14:56:46;;;;;;;18.39;5.33;;;;;;;;;;176361;27;10002204;-87
2022/10/29 15:05:35;;;;;;;14.02;4.65;;;;;;;;;;531702;27;20785;-82
2022/10/29 15:07:24;;;;;;;10.10;4.43;;;;;;;;;;531051;27;20124;-84
2022/10/29 15:08:33;;;;;;;10.30;4.90;;;;;;;;;;528882;27;1022;-83
2022/10/29 15:09:02;;;;;;;13.52;4.82;;;;;;;;;;527606;27;1044;-82
2022/10/29 15:10:52;;;;;;;11.60;5.15;;;;;;;;;;530164;27;20124;-82
2022/10/29 15:12:07;;;;;;;9.43;4.75;;;;;;;;;;526773;27;20134;-81
2022/10/29 15:13:26;;;;;;;10.70;5.30;;;;;;;;;;526798;28;1156;-83
2022/10/29 15:15:00;;;;;;;13.85;5.10;;;;;;;;;;525835;28;1174;-87
2022/10/29 15:16:18;;;;;;;10.82;5.43;;;;;;;;;;523122;28;1416;-83
2022/10/29 15:19:14;;;;;;;14.25;5.18;;;;;;;;;;531662;27;20806;-84
2022/10/29 15:19:29;;;;;;;12.23;5.22;;;;;;;;;;529871;27;1478;-87
2022/10/29 15:19:46;;;;;;;9.03;4.73;;;;;;;;;;527441;28;1175;-86
2022/10/29 15:20:04;;;;;;;9.88;4.72;;;;;;;;;;523359;28;1314;-88
2022/10/29 15:20:24;;;;;;;9.60;4.90;;;;;;;;;;524422;28;1200;-90
2022/10/29 15:20:39;;;;;;;9.70;5.13;;;;;;;;;;526518;28;1399;-86
2022/10/29 15:20:55;;;;;;;11.05;5.38;;;;;;;;;;523976;28;1185;-91
2022/10/29 15:21:11;;;;;;;11.57;5.18;;;;;;;;;;523627;28;967;-83
2022/10/29 15:21:31;;;;;;;11.48;4.80;;;;;;;;;;522625;28;1357;-86
2022/10/29 15:21:48;;;;;;;11.75;4.93;;;;;;;;;;523512;28;1134;-86
2022/10/29 15:22:08;;;;;;;10.77;4.93;;;;;;;;;;523840;28;1533;-86
2022/10/29 15:22:32;;;;;;;9.20;4.75;;;;;;;;;;474004;27;1496;-86
2022/10/29 15:22:53;;;;;;;9.40;4.70;;;;;;;;;;467383;28;9797;-83
2022/10/29 15:23:35;;;;;;;11.15;4.95;;;;;;;;;;524556;28;975;-81
2022/10/29 15:24:16;;;;;;;9.02;4.90;;;;;;;;;;521267;28;1044;-78
2022/10/29 15:25:34;;;;;;;10.18;4.82;;;;;;;;;;534357;23;1705;-71
2022/10/29 15:25:52;;;;;;;8.25;4.72;;;;;;;;;;520261;28;1401;-70
2022/10/29 15:26:19;;;;;;;9.67;4.70;;;;;;;;;;518604;28;1410;-69
2022/10/29 15:27:16;;;;;;;12.62;6.73;;;;;;;;;;1060146;27;21270;-74
2022/10/29 15:27:34;;;;;;;19.60;10.68;;;;;;;;;;527277;27;1313;-72
2022/10/29 15:27:51;;;;;;;12.13;5.47;;;;;;;;;;527484;27;1086;-81
2022/10/29 15:28:10;;;;;;;12.32;5.53;;;;;;;;;;524166;28;1466;-71
2022/10/29 15:28:35;;;;;;;9.40;4.95;;;;;;;;;;523764;28;1015;-71
2022/10/29 15:28:52;;;;;;;8.45;4.47;;;;;;;;;;521685;28;2340;-76
2022/10/29 15:29:10;;;;;;;9.43;4.57;;;;;;;;;;521663;28;1224;-76
2022/10/29 15:29:27;;;;;;;8.77;4.70;;;;;;;;;;521384;28;1223;-76
2022/10/29 15:29:46;;;;;;;9.73;4.80;;;;;;;;;;523802;28;1111;-76
2022/10/29 15:30:03;;;;;;;8.05;4.60;;;;;;;;;;524748;28;1090;-75
2022/10/29 15:30:29;;;;;;;9.90;4.75;;;;;;;;;;524769;28;1112;-76
2022/10/29 15:30:45;;;;;;;8.93;4.68;;;;;;;;;;523251;28;1352;-71
2022/10/29 15:31:02;;;;;;;7.60;4.70;;;;;;;;;;522227;28;1341;-72
2022/10/29 15:31:22;;;;;;;9.20;4.80;;;;;;;;;;522348;28;1282;-81
2022/10/29 15:31:47;;;;;;;10.68;4.78;;;;;;;;;;523508;28;1067;-74
2022/10/29 15:32:03;;;;;;;9.27;4.85;;;;;;;;;;522857;28;1305;-70
2022/10/29 15:32:18;;;;;;;10.27;4.90;;;;;;;;;;522961;28;1250;-69
2022/10/29 15:32:34;;;;;;;11.73;4.78;;;;;;;;;;523598;28;969;-69
2022/10/29 15:32:49;;;;;;;11.67;4.77;;;;;;;;;;521027;28;1089;-74
2022/10/29 15:33:12;;;;;;;10.93;4.67;;;;;;;;;;523106;28;1327;-74
2022/10/29 15:33:28;;;;;;;13.88;5.20;;;;;;;;;;519602;28;1178;-74
2022/10/29 15:33:44;;;;;;;11.02;4.82;;;;;;;;;;520825;28;1022;-73
2022/10/29 15:34:14;;;;;;;10.00;4.55;;;;;;;;;;522656;28;1202;-74
2022/10/29 15:34:34;;;;;;;10.68;4.60;;;;;;;;;;525185;28;1108;-76
2022/10/29 15:34:53;;;;;;;10.20;4.85;;;;;;;;;;524669;28;1378;-77
2022/10/29 15:35:09;;;;;;;10.15;5.07;;;;;;;;;;526530;27;1128;-78
2022/10/29 15:35:24;;;;;;;10.25;4.80;;;;;;;;;;527638;27;1137;-79
2022/10/29 15:36:00;;;;;;;12.93;4.97;;;;;;;;;;525671;28;1266;-78
2022/10/29 15:36:16;;;;;;;12.35;5.20;;;;;;;;;;521649;28;1608;-78
2022/10/29 15:36:45;;;;;;;13.63;5.32;;;;;;;;;;521641;28;1314;-78
2022/10/29 15:37:18;;;;;;;9.63;5.20;;;;;;;;;;522541;28;1178;-78
2022/10/29 15:37:42;;;;;;;11.32;4.97;;;;;;;;;;521546;28;1399;-78
2022/10/29 15:37:58;;;;;;;11.25;5.07;;;;;;;;;;522263;28;1067;-79
2022/10/29 15:38:45;;;;;;;10.93;5.03;;;;;;;;;;523514;28;1382;-78
2022/10/29 15:39:17;;;;;;;8.43;4.50;;;;;;;;;;524450;28;1372;-78
2022/10/29 15:39:55;;;;;;;9.45;4.70;;;;;;;;;;526923;27;1117;-79
2022/10/29 15:40:20;;;;;;;9.00;4.65;;;;;;;;;;526478;27;1456;-79
2022/10/29 15:40:36;;;;;;;11.15;4.88;;;;;;;;;;526395;27;1048;-75
2022/10/29 15:41:11;;;;;;;9.87;4.80;;;;;;;;;;525740;27;1742;-77
2022/10/29 15:41:35;;;;;;;10.63;4.55;;;;;;;;;;523668;28;1332;-77
2022/10/29 15:41:50;;;;;;;11.18;4.40;;;;;;;;;;524092;28;866;-78
2022/10/29 15:42:19;;;;;;;8.37;4.30;;;;;;;;;;526924;27;1320;-77
2022/10/29 15:42:35;;;;;;;8.57;4.20;;;;;;;;;;526872;27;1050;-77
2022/10/29 15:42:52;;;;;;;8.15;4.15;;;;;;;;;;527248;27;1278;-76
2022/10/29 15:43:28;;;;;;;9.90;4.50;;;;;;;;;;525825;27;1097;-76
2022/10/29 15:43:53;;;;;;;8.45;4.32;;;;;;;;;;524127;28;1114;-77
2022/10/29 15:44:32;;;;;;;8.20;4.47;;;;;;;;;;522268;28;1318;-76
2022/10/29 15:45:11;;;;;;;8.82;4.38;;;;;;;;;;521384;28;1427;-81
2022/10/29 15:45:27;;;;;;;9.65;4.43;;;;;;;;;;519930;28;1327;-80
2022/10/29 15:45:56;;;;;;;8.10;4.32;;;;;;;;;;523116;28;1389;-79
2022/10/29 15:46:14;;;;;;;8.90;4.30;;;;;;;;;;521401;28;1448;-80
2022/10/29 15:46:43;;;;;;;8.38;4.25;;;;;;;;;;522195;28;1042;-82
2022/10/29 15:47:01;;;;;;;7.22;4.20;;;;;;;;;;524961;28;1910;-80
2022/10/29 15:47:26;;;;;;;7.40;4.15;;;;;;;;;;524763;28;1699;-79
2022/10/29 15:47:44;;;;;;;6.93;4.05;;;;;;;;;;524117;28;1168;-77
2022/10/29 15:48:08;;;;;;;8.75;4.03;;;;;;;;;;525049;28;1081;-76
2022/10/29 15:48:33;;;;;;;8.98;4.22;;;;;;;;;;524129;28;2093;-77
2022/10/29 15:48:49;;;;;;;7.28;4.10;;;;;;;;;;522734;28;1385;-78
2022/10/29 15:49:13;;;;;;;7.50;4.20;;;;;;;;;;521207;28;1332;-77
2022/10/29 15:49:28;;;;;;;8.85;4.45;;;;;;;;;;523196;28;1138;-77
2022/10/29 15:49:43;;;;;;;9.60;4.40;;;;;;;;;;523611;28;1101;-79
2022/10/29 15:49:59;;;;;;;8.20;4.17;;;;;;;;;;522430;28;1135;-78
2022/10/29 15:50:18;;;;;;;7.90;4.20;;;;;;;;;;519349;28;1173;-80
2022/10/29 15:50:41;;;;;;;6.78;3.95;;;;;;;;;;522725;28;1289;-80
2022/10/29 15:50:57;;;;;;;8.65;4.22;;;;;;;;;;524746;28;1619;-80
2022/10/29 15:51:12;;;;;;;9.47;4.40;;;;;;;;;;525648;28;1811;-79
2022/10/29 15:51:29;;;;;;;8.68;3.95;;;;;;;;;;525348;28;1057;-79
2022/10/29 15:51:45;;;;;;;7.10;3.92;;;;;;;;;;523209;28;1244;-77
2022/10/29 15:52:00;;;;;;;6.63;4.10;;;;;;;;;;524569;28;1168;-78
2022/10/29 15:52:17;;;;;;;7.53;3.90;;;;;;;;;;524903;28;1381;-78
2022/10/29 15:52:38;;;;;;;7.00;3.90;;;;;;;;;;524949;28;1106;-78
2022/10/29 15:53:04;;;;;;;7.15;4.07;;;;;;;;;;523194;28;1532;-77
2022/10/29 15:53:19;;;;;;;6.60;4.00;;;;;;;;;;521447;28;1482;-81
2022/10/29 15:53:34;;;;;;;7.65;4.03;;;;;;;;;;521529;28;1203;-81
2022/10/29 15:53:50;;;;;;;7.77;4.10;;;;;;;;;;521339;28;1781;-77
2022/10/29 15:54:12;;;;;;;7.65;4.05;;;;;;;;;;521663;28;1591;-80
2022/10/29 15:54:28;;;;;;;8.80;3.92;;;;;;;;;;523426;28;1241;-81
2022/10/29 15:54:44;;;;;;;8.13;3.90;;;;;;;;;;523909;28;1149;-82
2022/10/29 15:55:05;;;;;;;8.05;4.10;;;;;;;;;;523057;28;1368;-79
2022/10/29 15:55:29;;;;;;;6.65;4.10;;;;;;;;;;522491;28;1280;-80
2022/10/29 15:55:44;;;;;;;6.75;4.10;;;;;;;;;;523021;28;1320;-79
2022/10/29 15:56:00;;;;;;;7.10;4.07;;;;;;;;;;524029;28;1209;-79
2022/10/29 15:56:15;;;;;;;9.27;4.13;;;;;;;;;;525408;28;1166;-79
2022/10/29 15:56:30;;;;;;;9.47;4.10;;;;;;;;;;525449;28;1105;-78
2022/10/29 15:56:46;;;;;;;6.65;4.13;;;;;;;;;;524032;28;2016;-77
2022/10/29 15:57:02;;;;;;;7.70;4.30;;;;;;;;;;526291;28;1050;-83
2022/10/29 15:57:17;;;;;;;8.77;4.30;;;;;;;;;;525118;28;1177;-81
2022/10/29 15:57:33;;;;;;;7.00;4.10;;;;;;;;;;523884;28;1240;-79
2022/10/29 15:57:50;;;;;;;6.55;4.00;;;;;;;;;;526629;27;1426;-80
2022/10/29 15:58:17;;;;;;;8.00;4.20;;;;;;;;;;529041;27;1213;-80
2022/10/29 15:58:32;;;;;;;9.05;4.45;;;;;;;;;;529950;27;1093;-80
2022/10/29 15:58:47;;;;;;;6.77;4.33;;;;;;;;;;527458;27;1607;-76
2022/10/29 15:59:03;;;;;;;6.17;4.07;;;;;;;;;;523930;28;1352;-78
2022/10/29 15:59:22;;;;;;;7.88;4.07;;;;;;;;;;523230;28;919;-77
2022/10/29 15:59:38;;;;;;;8.23;4.40;;;;;;;;;;523337;28;1125;-77
2022/10/29 15:59:56;;;;;;;7.80;4.20;;;;;;;;;;520560;28;1185;-79
2022/10/29 16:00:11;;;;;;;5.90;3.88;;;;;;;;;;501439;28;12392;-80
2022/10/29 16:00:28;;;;;;;6.27;3.93;;;;;;;;;;503134;28;1324;-79
2022/10/29 16:00:44;;;;;;;8.35;4.15;;;;;;;;;;516663;28;1819;-76
2022/10/29 16:00:59;;;;;;;8.50;4.23;;;;;;;;;;515491;28;1089;-76
2022/10/29 16:01:15;;;;;;;6.05;3.97;;;;;;;;;;518151;28;1459;-80
2022/10/29 16:01:31;;;;;;;5.40;3.75;;;;;;;;;;516157;28;1303;-79
2022/10/29 16:01:46;;;;;;;6.87;4.00;;;;;;;;;;518140;28;1123;-79
2022/10/29 16:02:09;;;;;;;7.00;3.97;;;;;;;;;;517796;28;975;-79
2022/10/29 16:02:25;;;;;;;7.20;4.05;;;;;;;;;;520890;28;976;-79
2022/10/29 16:02:40;;;;;;;7.10;4.20;;;;;;;;;;520174;28;1008;-77
2022/10/29 16:03:12;;;;;;;6.22;3.92;;;;;;;;;;521324;28;1290;-78
2022/10/29 16:03:27;;;;;;;8.07;4.07;;;;;;;;;;521165;28;1190;-82
2022/10/29 16:03:43;;;;;;;7.50;4.10;;;;;;;;;;519678;28;1185;-82
2022/10/29 16:03:58;;;;;;;7.97;4.30;;;;;;;;;;518969;28;1310;-78
2022/10/29 16:04:13;;;;;;;7.97;4.30;;;;;;;;;;517893;28;1103;-79
2022/10/29 16:04:29;;;;;;;7.80;4.10;;;;;;;;;;516922;28;1195;-80
2022/10/29 16:04:44;;;;;;;8.40;4.17;;;;;;;;;;515419;28;1285;-81
2022/10/29 16:04:59;;;;;;;8.30;4.25;;;;;;;;;;517074;28;1226;-79
2022/10/29 16:05:16;;;;;;;7.93;4.20;;;;;;;;;;517438;28;2049;-77
2022/10/29 16:05:31;;;;;;;7.55;4.10;;;;;;;;;;521485;28;1393;-77
2022/10/29 16:05:48;;;;;;;6.93;4.03;;;;;;;;;;518765;28;1184;-78
2022/10/29 16:06:07;;;;;;;8.25;4.05;;;;;;;;;;517522;28;1359;-78
2022/10/29 16:06:22;;;;;;;8.45;4.07;;;;;;;;;;520257;28;1445;-77
2022/10/29 16:06:37;;;;;;;6.43;4.00;;;;;;;;;;518541;28;1209;-82
2022/10/29 16:06:53;;;;;;;6.45;4.03;;;;;;;;;;519967;28;1129;-81
2022/10/29 16:07:12;;;;;;;6.85;3.95;;;;;;;;;;522001;28;1392;-81
2022/10/29 16:10:20;;;;;;;14.45;5.95;;;;;;;;;;531361;27;20159;-58
2022/10/29 16:11:41;;;;;;;24.35;6.82;;;;;;;;;;532681;27;20570;-58
2022/10/29 16:11:56;;;;;;;32.78;7.47;;;;;;;;;;526883;28;1226;-58
2022/10/29 16:12:12;;;;;;;29.50;7.67;;;;;;;;;;527067;28;1137;-62
2022/10/29 16:12:49;;;;;;;15.13;6.88;;;;;;;;;;530746;27;20177;-61
2022/10/29 16:13:07;;;;;;;15.27;6.78;;;;;;;;;;530100;27;1159;-59
2022/10/29 16:13:24;;;;;;;18.52;6.78;;;;;;;;;;525339;27;1513;-62
2022/10/29 16:13:40;;;;;;;18.38;7.00;;;;;;;;;;527754;27;1037;-62
2022/10/29 16:13:55;;;;;;;16.90;7.18;;;;;;;;;;527075;27;993;-61
2022/10/29 16:14:11;;;;;;;18.33;7.30;;;;;;;;;;528900;27;1078;-62
2022/10/29 16:14:26;;;;;;;19.27;7.33;;;;;;;;;;524477;28;1199;-62
2022/10/29 16:14:41;;;;;;;16.77;7.10;;;;;;;;;;526577;28;1050;-62
2022/10/29 16:14:56;;;;;;;17.33;7.20;;;;;;;;;;523405;28;1161;-61
2022/10/29 16:15:17;;;;;;;17.00;7.43;;;;;;;;;;520018;28;1079;-62
2022/10/29 16:15:33;;;;;;;14.70;7.00;;;;;;;;;;522333;28;1133;-61
2022/10/29 16:15:49;;;;;;;14.57;7.10;;;;;;;;;;524022;28;1027;-61
2022/10/29 16:16:09;;;;;;;13.93;7.32;;;;;;;;;;522635;28;990;-62
2022/10/29 16:16:24;;;;;;;15.02;7.40;;;;;;;;;;524861;28;983;-62
2022/10/29 16:16:40;;;;;;;15.13;7.22;;;;;;;;;;524784;28;1212;-61
2022/10/29 16:16:55;;;;;;;14.30;7.50;;;;;;;;;;528906;27;1109;-61
2022/10/29 16:17:16;;;;;;;15.60;7.60;;;;;;;;;;528624;27;1199;-61
2022/10/29 16:17:31;;;;;;;17.52;7.45;;;;;;;;;;527765;27;1394;-62
2022/10/29 16:17:46;;;;;;;16.43;7.43;;;;;;;;;;526307;27;1865;-62
2022/10/29 16:18:02;;;;;;;15.77;7.67;;;;;;;;;;526504;27;1014;-62
2022/10/29 16:18:17;;;;;;;14.43;7.15;;;;;;;;;;527250;27;1317;-62
2022/10/29 16:18:32;;;;;;;11.77;6.20;;;;;;;;;;527479;27;1156;-62
2022/10/29 16:18:48;;;;;;;11.83;6.00;;;;;;;;;;526234;27;1776;-61
2022/10/29 16:19:03;;;;;;;13.43;6.57;;;;;;;;;;526432;27;1080;-61
2022/10/29 16:19:19;;;;;;;14.30;7.07;;;;;;;;;;524760;28;1199;-62
2022/10/29 16:19:34;;;;;;;15.68;7.22;;;;;;;;;;525214;28;944;-62
2022/10/29 16:19:49;;;;;;;18.80;7.67;;;;;;;;;;523776;28;1077;-62
2022/10/29 16:20:05;;;;;;;18.97;7.60;;;;;;;;;;524120;28;1023;-61
2022/10/29 16:20:20;;;;;;;17.60;7.70;;;;;;;;;;525325;28;1167;-61
2022/10/29 16:20:36;;;;;;;17.50;7.60;;;;;;;;;;524597;28;1416;-61
2022/10/29 16:20:56;;;;;;;21.33;7.72;;;;;;;;;;525207;27;1381;-61
2022/10/29 16:21:15;;;;;;;16.35;7.65;;;;;;;;;;526264;27;1012;-61
2022/10/29 16:21:31;;;;;;;17.77;7.93;;;;;;;;;;526100;27;1148;-61
2022/10/29 16:21:46;;;;;;;19.17;8.27;;;;;;;;;;526890;27;1026;-61
2022/10/29 16:22:01;;;;;;;18.23;8.30;;;;;;;;;;526852;27;1648;-61
2022/10/29 16:22:27;;;;;;;16.67;8.50;;;;;;;;;;526683;27;1173;-61
2022/10/29 16:22:44;;;;;;;16.73;8.30;;;;;;;;;;527178;27;1120;-61
2022/10/29 16:22:59;;;;;;;15.85;7.95;;;;;;;;;;523318;28;1403;-61
2022/10/29 16:23:15;;;;;;;17.50;8.07;;;;;;;;;;525563;28;1196;-61
2022/10/29 16:23:32;;;;;;;18.17;8.13;;;;;;;;;;522593;28;1157;-61
2022/10/29 16:23:48;;;;;;;17.33;8.15;;;;;;;;;;522500;28;1046;-61
2022/10/29 16:24:03;;;;;;;16.40;8.52;;;;;;;;;;523976;28;1070;-61
2022/10/29 16:24:18;;;;;;;15.53;8.53;;;;;;;;;;522129;28;1145;-61
2022/10/29 16:24:34;;;;;;;16.33;8.30;;;;;;;;;;522659;28;1363;-61
2022/10/29 16:24:49;;;;;;;19.05;8.25;;;;;;;;;;523567;28;2035;-61
2022/10/29 16:25:05;;;;;;;21.73;8.10;;;;;;;;;;525794;27;1206;-61
2022/10/29 16:25:25;;;;;;;20.67;8.00;;;;;;;;;;526532;27;1165;-61
2022/10/29 16:25:40;;;;;;;20.15;8.32;;;;;;;;;;526868;27;1293;-61
2022/10/29 16:25:56;;;;;;;20.67;8.33;;;;;;;;;;527957;27;1191;-61
2022/10/29 16:26:15;;;;;;;19.30;8.10;;;;;;;;;;527691;27;1148;-61
2022/10/29 16:26:30;;;;;;;14.90;8.15;;;;;;;;;;526132;27;1852;-61
2022/10/29 16:26:45;;;;;;;14.23;8.05;;;;;;;;;;526494;27;1082;-61
2022/10/29 16:27:00;;;;;;;15.73;8.07;;;;;;;;;;525841;28;900;-61
2022/10/29 16:27:17;;;;;;;18.43;8.07;;;;;;;;;;521889;28;954;-61
2022/10/29 16:27:32;;;;;;;18.02;8.05;;;;;;;;;;523667;28;987;-61
2022/10/29 16:27:48;;;;;;;15.97;8.43;;;;;;;;;;522393;28;1291;-61
2022/10/29 16:28:03;;;;;;;19.70;8.77;;;;;;;;;;522311;28;1175;-61
2022/10/29 16:28:18;;;;;;;19.50;8.55;;;;;;;;;;521043;28;1011;-61
2022/10/29 16:28:34;;;;;;;19.23;8.43;;;;;;;;;;521752;28;954;-61
2022/10/29 16:28:52;;;;;;;21.80;8.50;;;;;;;;;;519551;28;1111;-61
2022/10/29 16:29:09;;;;;;;20.48;8.68;;;;;;;;;;519564;28;1070;-61
2022/10/29 16:29:24;;;;;;;18.97;9.10;;;;;;;;;;518813;28;1255;-61
2022/10/29 16:29:39;;;;;;;22.67;9.68;;;;;;;;;;519806;28;1150;-61
2022/10/29 16:29:55;;;;;;;22.23;9.33;;;;;;;;;;522016;28;1700;-61
2022/10/29 16:30:10;;;;;;;18.73;9.00;;;;;;;;;;521583;28;1078;-61
2022/10/29 16:30:25;;;;;;;19.67;9.82;;;;;;;;;;519741;28;1071;-61
2022/10/29 16:30:41;;;;;;;20.80;10.67;;;;;;;;;;521736;28;1228;-61
2022/10/29 16:30:58;;;;;;;18.50;10.45;;;;;;;;;;523689;28;1098;-61
2022/10/29 16:31:19;;;;;;;18.10;9.45;;;;;;;;;;524858;28;1097;-61
2022/10/29 16:31:35;;;;;;;19.92;8.88;;;;;;;;;;528472;27;1029;-61
2022/10/29 16:31:50;;;;;;;21.85;9.15;;;;;;;;;;525627;28;1313;-61
2022/10/29 16:32:07;;;;;;;23.23;9.33;;;;;;;;;;527610;27;1193;-61
2022/10/29 16:32:23;;;;;;;21.15;9.38;;;;;;;;;;526705;27;1126;-60
2022/10/29 16:32:39;;;;;;;19.15;9.52;;;;;;;;;;526007;27;1980;-61
2022/10/29 16:32:54;;;;;;;19.65;9.45;;;;;;;;;;526266;27;1314;-61
2022/10/29 16:33:10;;;;;;;20.97;9.80;;;;;;;;;;524274;28;1417;-61
2022/10/29 16:33:26;;;;;;;22.60;10.00;;;;;;;;;;522492;28;1241;-61
2022/10/29 16:33:41;;;;;;;20.30;9.83;;;;;;;;;;523531;28;1284;-61
2022/10/29 16:33:58;;;;;;;21.55;10.00;;;;;;;;;;524905;28;1195;-61
2022/10/29 16:34:13;;;;;;;20.13;10.00;;;;;;;;;;526147;28;1161;-61
2022/10/29 16:34:28;;;;;;;19.23;9.90;;;;;;;;;;520249;28;1250;-61
2022/10/29 16:34:44;;;;;;;20.03;9.90;;;;;;;;;;524111;28;1165;-61
2022/10/29 16:34:59;;;;;;;19.80;9.43;;;;;;;;;;523557;28;1003;-61
2022/10/29 16:35:28;;;;;;;17.47;8.90;;;;;;;;;;524246;28;1301;-61
2022/10/29 16:35:43;;;;;;;18.27;9.25;;;;;;;;;;524739;28;1209;-61
2022/10/29 16:35:59;;;;;;;17.42;9.07;;;;;;;;;;523725;28;1252;-61
2022/10/29 16:36:14;;;;;;;14.43;8.70;;;;;;;;;;525792;28;983;-61
2022/10/29 16:36:29;;;;;;;17.30;9.05;;;;;;;;;;527801;27;1206;-61
2022/10/29 16:36:45;;;;;;;17.87;9.27;;;;;;;;;;525266;27;1086;-61
2022/10/29 16:37:00;;;;;;;16.07;8.90;;;;;;;;;;527281;27;985;-61
2022/10/29 16:37:17;;;;;;;16.77;9.20;;;;;;;;;;527937;27;1156;-61
2022/10/29 16:37:33;;;;;;;18.42;10.15;;;;;;;;;;528404;27;976;-61
2022/10/29 16:37:49;;;;;;;19.40;10.03;;;;;;;;;;530160;27;1105;-61
2022/10/29 16:38:04;;;;;;;18.27;9.85;;;;;;;;;;528329;27;1113;-61
2022/10/29 16:38:20;;;;;;;15.35;9.25;;;;;;;;;;528739;27;994;-61
2022/10/29 16:38:35;;;;;;;13.03;8.50;;;;;;;;;;530124;27;1104;-61
2022/10/29 16:38:50;;;;;;;15.53;9.10;;;;;;;;;;531909;27;1104;-61
2022/10/29 16:39:05;;;;;;;18.23;9.80;;;;;;;;;;527684;27;1128;-61
2022/10/29 16:39:21;;;;;;;21.75;9.57;;;;;;;;;;527340;27;1877;-61
2022/10/29 16:39:36;;;;;;;20.50;9.50;;;;;;;;;;530355;27;970;-61
2022/10/29 16:39:51;;;;;;;16.57;9.43;;;;;;;;;;530116;27;1031;-61
2022/10/29 16:40:07;;;;;;;16.88;8.50;;;;;;;;;;528176;27;1153;-61
2022/10/29 16:40:25;;;;;;;15.93;7.70;;;;;;;;;;528398;27;1008;-61
2022/10/29 16:40:41;;;;;;;15.85;8.35;;;;;;;;;;529905;27;1116;-61
2022/10/29 16:40:56;;;;;;;18.85;9.23;;;;;;;;;;527914;27;1163;-61
2022/10/29 16:41:16;;;;;;;21.48;9.75;;;;;;;;;;524360;27;1384;-61
2022/10/29 16:41:32;;;;;;;19.52;9.80;;;;;;;;;;527349;27;1068;-61
2022/10/29 16:41:48;;;;;;;18.25;9.48;;;;;;;;;;528805;27;1128;-61
2022/10/29 16:42:03;;;;;;;19.67;9.30;;;;;;;;;;524686;28;1199;-61
2022/10/29 16:42:34;;;;;;;19.17;9.27;;;;;;;;;;526184;28;1362;-61
2022/10/29 16:42:50;;;;;;;14.68;7.93;;;;;;;;;;526531;28;1092;-61
2022/10/29 16:43:05;;;;;;;17.10;8.05;;;;;;;;;;525766;27;1227;-62
2022/10/29 16:43:20;;;;;;;18.03;8.27;;;;;;;;;;526586;27;1191;-61
2022/10/29 16:43:35;;;;;;;19.40;8.33;;;;;;;;;;528110;27;1438;-61
2022/10/29 16:43:51;;;;;;;17.95;8.45;;;;;;;;;;528185;27;1053;-61
2022/10/29 16:44:07;;;;;;;16.95;8.63;;;;;;;;;;527141;27;1245;-61
2022/10/29 16:44:22;;;;;;;16.70;8.60;;;;;;;;;;524085;27;932;-61
2022/10/29 16:44:40;;;;;;;13.70;7.73;;;;;;;;;;527759;27;1101;-61
2022/10/29 16:44:55;;;;;;;16.45;7.75;;;;;;;;;;526283;28;1565;-61
2022/10/29 16:45:19;;;;;;;22.67;8.13;;;;;;;;;;522634;28;1148;-61
2022/10/29 16:45:35;;;;;;;19.35;7.50;;;;;;;;;;526555;27;1106;-61
2022/10/29 16:45:50;;;;;;;15.77;7.72;;;;;;;;;;527525;27;1208;-61
2022/10/29 16:46:06;;;;;;;14.07;8.00;;;;;;;;;;528822;27;1384;-61
2022/10/29 16:46:21;;;;;;;16.70;8.13;;;;;;;;;;526653;27;1344;-61
2022/10/29 16:46:36;;;;;;;20.67;7.87;;;;;;;;;;528187;27;1069;-61
2022/10/29 16:46:51;;;;;;;20.27;8.00;;;;;;;;;;525955;27;1240;-61
2022/10/29 16:47:07;;;;;;;16.25;8.20;;;;;;;;;;526452;27;1218;-61
2022/10/29 16:47:22;;;;;;;15.07;8.53;;;;;;;;;;528195;27;1230;-61
2022/10/29 16:47:38;;;;;;;15.60;9.03;;;;;;;;;;526033;27;1158;-61
2022/10/29 16:47:53;;;;;;;17.48;9.15;;;;;;;;;;527074;27;1094;-61
2022/10/29 16:48:08;;;;;;;17.70;9.00;;;;;;;;;;524201;27;1179;-61
2022/10/29 16:48:23;;;;;;;17.77;8.97;;;;;;;;;;526837;27;1173;-61
2022/10/29 16:48:39;;;;;;;20.50;9.10;;;;;;;;;;525701;27;1166;-61
2022/10/29 16:48:54;;;;;;;21.63;9.27;;;;;;;;;;524890;28;1183;-61
2022/10/29 16:49:09;;;;;;;18.87;9.20;;;;;;;;;;524949;28;1181;-61
2022/10/29 16:49:25;;;;;;;19.20;9.03;;;;;;;;;;524780;28;1318;-61
2022/10/29 16:49:40;;;;;;;20.55;9.10;;;;;;;;;;524281;28;1439;-61
2022/10/29 16:49:55;;;;;;;18.90;9.50;;;;;;;;;;522574;28;1115;-61
2022/10/29 16:50:20;;;;;;;18.77;9.60;;;;;;;;;;523654;28;1090;-61
2022/10/29 16:50:35;;;;;;;20.60;9.75;;;;;;;;;;525964;28;1088;-61
2022/10/29 16:50:50;;;;;;;18.87;9.83;;;;;;;;;;525917;28;1148;-61
2022/10/29 16:51:06;;;;;;;20.53;9.83;;;;;;;;;;523689;28;1236;-61
2022/10/29 16:51:21;;;;;;;24.52;10.00;;;;;;;;;;526220;27;1168;-61
2022/10/29 16:51:37;;;;;;;23.03;10.23;;;;;;;;;;527703;27;1128;-61
2022/10/29 16:51:52;;;;;;;24.17;10.10;;;;;;;;;;528584;27;1101;-61
2022/10/29 16:52:09;;;;;;;23.30;10.07;;;;;;;;;;523336;28;1312;-61
2022/10/29 16:52:24;;;;;;;18.88;9.80;;;;;;;;;;524079;28;1001;-62
2022/10/29 16:52:40;;;;;;;22.13;9.77;;;;;;;;;;526648;28;1961;-61
2022/10/29 16:52:57;;;;;;;20.60;9.77;;;;;;;;;;524756;28;2571;-61
2022/10/29 16:53:12;;;;;;;17.65;9.60;;;;;;;;;;524928;28;1021;-61
2022/10/29 16:53:27;;;;;;;17.23;9.43;;;;;;;;;;523380;28;1188;-61
2022/10/29 16:53:43;;;;;;;16.70;9.30;;;;;;;;;;525177;28;1117;-61
2022/10/29 16:53:58;;;;;;;16.45;9.30;;;;;;;;;;526049;28;1152;-61
2022/10/29 16:54:13;;;;;;;17.80;9.33;;;;;;;;;;526992;27;1152;-61
2022/10/29 16:54:29;;;;;;;17.67;9.03;;;;;;;;;;528031;27;1041;-61
2022/10/29 16:54:44;;;;;;;17.23;9.02;;;;;;;;;;529146;27;930;-61
2022/10/29 16:54:59;;;;;;;17.00;9.10;;;;;;;;;;530770;27;1112;-61
2022/10/29 16:55:15;;;;;;;18.80;8.77;;;;;;;;;;529953;27;1109;-61
2022/10/29 16:55:30;;;;;;;19.97;8.60;;;;;;;;;;527282;27;1146;-61
2022/10/29 16:55:45;;;;;;;16.60;8.55;;;;;;;;;;524242;28;1591;-61
2022/10/29 16:56:01;;;;;;;16.47;8.70;;;;;;;;;;522165;28;1144;-61
2022/10/29 16:56:16;;;;;;;15.20;8.40;;;;;;;;;;523412;28;1186;-61
2022/10/29 16:56:31;;;;;;;15.40;8.30;;;;;;;;;;520639;28;2119;-61
2022/10/29 16:56:46;;;;;;;18.90;9.03;;;;;;;;;;518746;28;1770;-61
2022/10/29 16:57:02;;;;;;;19.73;9.00;;;;;;;;;;519100;28;1079;-61
2022/10/29 16:57:17;;;;;;;17.85;8.45;;;;;;;;;;518456;28;1027;-61
2022/10/29 16:57:32;;;;;;;14.93;8.23;;;;;;;;;;520739;28;1193;-61
2022/10/29 16:57:48;;;;;;;14.97;8.43;;;;;;;;;;522171;28;1042;-61
2022/10/29 16:58:06;;;;;;;15.67;8.30;;;;;;;;;;523829;28;1109;-61
2022/10/29 16:58:21;;;;;;;15.43;7.97;;;;;;;;;;524756;28;1068;-61
2022/10/29 16:58:36;;;;;;;16.52;8.02;;;;;;;;;;527042;27;1137;-61
2022/10/29 16:58:55;;;;;;;15.20;7.83;;;;;;;;;;529089;27;1342;-61
2022/10/29 16:59:11;;;;;;;16.30;7.63;;;;;;;;;;527475;27;1125;-61
2022/10/29 16:59:26;;;;;;;16.03;7.53;;;;;;;;;;526659;27;1213;-61
2022/10/29 16:59:42;;;;;;;14.10;7.32;;;;;;;;;;527599;27;1112;-61
2022/10/29 16:59:57;;;;;;;17.13;7.70;;;;;;;;;;527901;27;1109;-61
2022/10/29 17:00:13;;;;;;;18.80;7.97;;;;;;;;;;527427;27;1145;-61
2022/10/29 17:00:31;;;;;;;17.97;7.90;;;;;;;;;;526720;27;1705;-61
2022/10/29 17:00:47;;;;;;;17.00;8.00;;;;;;;;;;528730;27;1191;-61
2022/10/29 17:01:07;;;;;;;19.03;7.93;;;;;;;;;;527298;27;1088;-61
2022/10/29 17:01:22;;;;;;;18.30;7.40;;;;;;;;;;524698;28;2113;-61
2022/10/29 17:01:37;;;;;;;16.13;7.43;;;;;;;;;;523475;28;1312;-61
2022/10/29 17:01:52;;;;;;;18.97;7.57;;;;;;;;;;523100;28;991;-61
2022/10/29 17:02:11;;;;;;;17.57;7.50;;;;;;;;;;522738;28;1098;-61
2022/10/29 17:02:26;;;;;;;19.40;8.05;;;;;;;;;;523669;28;1771;-61
2022/10/29 17:02:43;;;;;;;21.17;8.20;;;;;;;;;;524833;28;1136;-61
2022/10/29 17:02:59;;;;;;;16.38;7.78;;;;;;;;;;522759;28;2036;-61
2022/10/29 17:03:15;;;;;;;13.73;7.47;;;;;;;;;;523858;28;1282;-61
2022/10/29 17:03:32;;;;;;;15.65;7.57;;;;;;;;;;525646;27;1133;-61
2022/10/29 17:03:50;;;;;;;17.73;7.68;;;;;;;;;;525901;27;1161;-61
2022/10/29 17:04:08;;;;;;;16.92;7.63;;;;;;;;;;525300;28;971;-61
2022/10/29 17:04:23;;;;;;;16.40;7.90;;;;;;;;;;526748;28;982;-61
2022/10/29 17:04:38;;;;;;;14.57;7.77;;;;;;;;;;520621;28;1579;-61
2022/10/29 17:04:53;;;;;;;15.15;7.80;;;;;;;;;;524181;28;986;-61
2022/10/29 17:05:10;;;;;;;16.73;8.00;;;;;;;;;;525803;28;921;-61
2022/10/29 17:05:25;;;;;;;16.13;8.30;;;;;;;;;;525723;28;1110;-61
2022/10/29 17:05:43;;;;;;;15.80;8.10;;;;;;;;;;521828;28;1129;-61
2022/10/29 17:06:06;;;;;;;15.60;7.57;;;;;;;;;;524159;28;1089;-61
2022/10/29 17:06:21;;;;;;;16.23;7.72;;;;;;;;;;524033;28;2118;-61
2022/10/29 17:06:37;;;;;;;15.17;7.77;;;;;;;;;;528047;27;1413;-61
2022/10/29 17:06:52;;;;;;;16.73;7.70;;;;;;;;;;527188;27;1152;-61
2022/10/29 17:07:07;;;;;;;17.70;7.80;;;;;;;;;;527915;27;1661;-61
2022/10/29 17:07:23;;;;;;;16.70;7.83;;;;;;;;;;525356;27;974;-61
2022/10/29 17:07:38;;;;;;;15.97;7.70;;;;;;;;;;526535;27;1200;-61
2022/10/29 17:07:54;;;;;;;14.05;7.57;;;;;;;;;;525038;27;1603;-61
2022/10/29 17:08:11;;;;;;;15.75;7.65;;;;;;;;;;526891;27;1242;-61
2022/10/29 17:08:30;;;;;;;17.27;7.85;;;;;;;;;;522799;28;1420;-61
2022/10/29 17:08:45;;;;;;;15.15;7.28;;;;;;;;;;525594;28;1276;-61
2022/10/29 17:09:00;;;;;;;16.70;7.67;;;;;;;;;;526684;28;1106;-61
2022/10/29 17:09:15;;;;;;;17.00;7.97;;;;;;;;;;523890;28;1188;-61
2022/10/29 17:09:34;;;;;;;16.53;8.13;;;;;;;;;;526845;28;1318;-61
2022/10/29 17:09:49;;;;;;;16.77;8.20;;;;;;;;;;525988;28;1124;-61
2022/10/29 17:10:05;;;;;;;16.87;7.97;;;;;;;;;;523012;28;1046;-61